sensor_id;sensor_type;location;lat;lon;timestamp;pressure;altitude;pressure_sealevel;temperature;humidity
70015;BME280;57358;51.094;6.760;2023-11-18T00:00:36;101868.31;;;3.72;100.00
70015;BME280;57358;51.094;6.760;2023-11-18T00:03:02;101845.88;;;3.64;100.00
70015;BME280;57358;51.094;6.760;2023-11-18T00:05:29;101838.97;;;3.61;100.00
70015;BME280;57358;51.094;6.760;2023-11-18T00:07:55;101889.88;;;3.90;100.00
70015;BME280;57358;51.094;6.760;2023-11-18T00:10:22;101769.13;;;3.10;100.00
70015;BME280;57358;51.094;6.760;2023-11-18T00:12:49;101781.25;;;3.10;100.00
70015;BME280;57358;51.094;6.760;2023-11-18T00:15:16;101858.09;;;3.38;100.00
70015;BME280;57358;51.094;6.760;2023-11-18T00:17:42;101800.34;;;2.89;100.00
70015;BME280;57358;51.094;6.760;2023-11-18T00:20:09;101892.69;;;3.44;100.00
70015;BME280;57358;51.094;6.760;2023-11-18T00:22:39;101838.31;;;3.05;100.00
70015;BME280;57358;51.094;6.760;2023-11-18T00:25:06;101909.09;;;3.43;100.00
70015;BME280;57358;51.094;6.760;2023-11-18T00:27:35;101895.28;;;3.34;100.00
70015;BME280;57358;51.094;6.760;2023-11-18T00:30:05;101867.66;;;3.29;100.00
70015;BME280;57358;51.094;6.760;2023-11-18T00:32:34;101880.59;;;3.30;100.00
70015;BME280;57358;51.094;6.760;2023-11-18T00:35:01;101872.00;;;3.25;100.00
70015;BME280;57358;51.094;6.760;2023-11-18T00:37:30;101807.28;;;2.71;100.00
70015;BME280;57358;51.094;6.760;2023-11-18T00:39:57;101910.81;;;3.59;100.00
70015;BME280;57358;51.094;6.760;2023-11-18T00:42:24;101886.59;;;3.46;100.00
70015;BME280;57358;51.094;6.760;2023-11-18T00:44:50;101854.66;;;3.33;100.00
70015;BME280;57358;51.094;6.760;2023-11-18T00:47:16;101819.25;;;3.20;100.00
70015;BME280;57358;51.094;6.760;2023-11-18T00:49:43;101827.00;;;3.25;100.00
70015;BME280;57358;51.094;6.760;2023-11-18T00:52:10;101784.75;;;3.01;100.00
70015;BME280;57358;51.094;6.760;2023-11-18T00:54:36;101738.13;;;2.79;100.00
70015;BME280;57358;51.094;6.760;2023-11-18T00:57:02;101850.25;;;3.55;100.00
70015;BME280;57358;51.094;6.760;2023-11-18T00:59:29;101896.00;;;3.79;100.00
70015;BME280;57358;51.094;6.760;2023-11-18T01:01:56;101854.59;;;3.53;100.00
70015;BME280;57358;51.094;6.760;2023-11-18T01:04:23;101769.19;;;3.01;100.00
70015;BME280;57358;51.094;6.760;2023-11-18T01:06:49;101870.19;;;3.46;100.00
70015;BME280;57358;51.094;6.760;2023-11-18T01:09:17;101879.63;;;3.62;100.00
70015;BME280;57358;51.094;6.760;2023-11-18T01:11:44;101883.91;;;3.74;100.00
70015;BME280;57358;51.094;6.760;2023-11-18T01:14:30;101882.19;;;3.68;100.00
70015;BME280;57358;51.094;6.760;2023-11-18T01:16:57;101784.72;;;3.03;100.00
70015;BME280;57358;51.094;6.760;2023-11-18T01:19:23;101913.28;;;3.85;100.00
70015;BME280;57358;51.094;6.760;2023-11-18T01:21:50;101817.44;;;3.36;100.00
70015;BME280;57358;51.094;6.760;2023-11-18T01:24:19;101920.13;;;3.98;100.00
70015;BME280;57358;51.094;6.760;2023-11-18T01:26:46;101901.13;;;3.90;100.00
70015;BME280;57358;51.094;6.760;2023-11-18T01:29:12;101794.16;;;3.24;100.00
70015;BME280;57358;51.094;6.760;2023-11-18T01:31:39;101911.50;;;3.90;100.00
70015;BME280;57358;51.094;6.760;2023-11-18T01:34:18;101933.09;;;4.06;100.00
70015;BME280;57358;51.094;6.760;2023-11-18T01:36:48;101941.72;;;4.10;100.00
70015;BME280;57358;51.094;6.760;2023-11-18T01:39:19;101886.47;;;3.80;100.00
70015;BME280;57358;51.094;6.760;2023-11-18T01:41:45;101929.66;;;3.99;100.00
70015;BME280;57358;51.094;6.760;2023-11-18T01:44:12;101709.69;;;2.63;100.00
70015;BME280;57358;51.094;6.760;2023-11-18T01:46:42;101755.34;;;2.96;100.00
70015;BME280;57358;51.094;6.760;2023-11-18T01:49:12;101773.47;;;3.00;100.00
70015;BME280;57358;51.094;6.760;2023-11-18T01:51:43;101939.13;;;4.10;100.00
70015;BME280;57358;51.094;6.760;2023-11-18T01:54:12;101887.25;;;3.93;100.00
70015;BME280;57358;51.094;6.760;2023-11-18T01:56:49;101792.41;;;3.24;100.00
70015;BME280;57358;51.094;6.760;2023-11-18T01:59:16;101926.09;;;4.14;100.00
70015;BME280;57358;51.094;6.760;2023-11-18T02:01:50;101917.47;;;4.11;100.00
70015;BME280;57358;51.094;6.760;2023-11-18T02:04:18;101920.94;;;4.10;100.00
70015;BME280;57358;51.094;6.760;2023-11-18T02:06:51;101895.00;;;4.00;100.00
70015;BME280;57358;51.094;6.760;2023-11-18T02:09:20;101911.41;;;4.13;100.00
70015;BME280;57358;51.094;6.760;2023-11-18T02:12:36;101912.22;;;4.22;100.00
70015;BME280;57358;51.094;6.760;2023-11-18T02:14:54;101824.19;;;3.71;100.00
70015;BME280;57358;51.094;6.760;2023-11-18T02:17:22;101879.41;;;4.02;100.00
70015;BME280;57358;51.094;6.760;2023-11-18T02:19:53;101903.56;;;4.15;100.00
70015;BME280;57358;51.094;6.760;2023-11-18T02:22:19;101906.97;;;4.25;100.00
70015;BME280;57358;51.094;6.760;2023-11-18T02:24:48;101582.03;;;2.21;100.00
70015;BME280;57358;51.094;6.760;2023-11-18T02:27:15;101888.16;;;3.90;100.00
70015;BME280;57358;51.094;6.760;2023-11-18T02:29:45;101911.56;;;3.79;100.00
70015;BME280;57358;51.094;6.760;2023-11-18T02:32:23;101901.94;;;4.00;100.00
70015;BME280;57358;51.094;6.760;2023-11-18T02:35:02;101822.66;;;3.33;100.00
70015;BME280;57358;51.094;6.760;2023-11-18T02:37:32;101844.22;;;3.47;100.00
70015;BME280;57358;51.094;6.760;2023-11-18T02:40:03;101939.13;;;4.11;100.00
70015;BME280;57358;51.094;6.760;2023-11-18T02:42:36;101905.44;;;3.94;100.00
70015;BME280;57358;51.094;6.760;2023-11-18T02:45:05;101711.34;;;2.84;100.00
70015;BME280;57358;51.094;6.760;2023-11-18T02:47:33;101911.47;;;3.98;100.00
70015;BME280;57358;51.094;6.760;2023-11-18T02:50:00;101891.66;;;3.83;100.00
70015;BME280;57358;51.094;6.760;2023-11-18T02:52:37;101914.06;;;4.01;100.00
70015;BME280;57358;51.094;6.760;2023-11-18T02:55:07;101931.34;;;4.10;100.00
70015;BME280;57358;51.094;6.760;2023-11-18T02:57:35;101922.66;;;4.14;100.00
70015;BME280;57358;51.094;6.760;2023-11-18T03:00:03;101911.50;;;3.95;100.00
70015;BME280;57358;51.094;6.760;2023-11-18T03:02:31;101945.16;;;4.15;100.00
70015;BME280;57358;51.094;6.760;2023-11-18T03:04:57;101916.78;;;3.79;100.00
70015;BME280;57358;51.094;6.760;2023-11-18T03:07:25;101854.63;;;3.47;100.00
70015;BME280;57358;51.094;6.760;2023-11-18T03:09:53;101946.88;;;4.13;100.00
70015;BME280;57358;51.094;6.760;2023-11-18T03:12:23;101932.22;;;4.06;100.00
70015;BME280;57358;51.094;6.760;2023-11-18T03:14:54;101920.97;;;4.05;100.00
70015;BME280;57358;51.094;6.760;2023-11-18T03:17:20;101913.25;;;3.90;100.00
70015;BME280;57358;51.094;6.760;2023-11-18T03:19:47;101920.06;;;4.11;100.00
70015;BME280;57358;51.094;6.760;2023-11-18T03:22:13;101927.84;;;4.15;100.00
70015;BME280;57358;51.094;6.760;2023-11-18T03:24:39;101915.75;;;4.08;100.00
70015;BME280;57358;51.094;6.760;2023-11-18T03:27:06;101897.59;;;4.00;100.00
70015;BME280;57358;51.094;6.760;2023-11-18T03:29:34;101782.03;;;3.27;100.00
70015;BME280;57358;51.094;6.760;2023-11-18T03:32:02;101806.16;;;3.48;100.00
70015;BME280;57358;51.094;6.760;2023-11-18T03:34:28;101902.81;;;4.00;100.00
70015;BME280;57358;51.094;6.760;2023-11-18T03:36:55;101857.91;;;3.78;100.00
70015;BME280;57358;51.094;6.760;2023-11-18T03:39:23;101893.28;;;4.01;100.00
70015;BME280;57358;51.094;6.760;2023-11-18T03:41:49;101901.91;;;4.05;100.00
70015;BME280;57358;51.094;6.760;2023-11-18T03:44:16;101804.41;;;3.47;100.00
70015;BME280;57358;51.094;6.760;2023-11-18T03:46:43;101903.66;;;4.04;100.00
70015;BME280;57358;51.094;6.760;2023-11-18T03:49:09;101912.25;;;4.11;100.00
70015;BME280;57358;51.094;6.760;2023-11-18T03:51:36;101907.09;;;4.09;100.00
70015;BME280;57358;51.094;6.760;2023-11-18T03:54:02;101911.44;;;4.06;100.00
70015;BME280;57358;51.094;6.760;2023-11-18T03:56:29;101919.19;;;4.12;100.00
70015;BME280;57358;51.094;6.760;2023-11-18T03:58:55;101784.63;;;3.24;100.00
70015;BME280;57358;51.094;6.760;2023-11-18T04:01:23;101851.09;;;3.54;100.00
70015;BME280;57358;51.094;6.760;2023-11-18T04:03:49;101920.94;;;4.07;100.00
70015;BME280;57358;51.094;6.760;2023-11-18T04:06:16;101891.63;;;3.85;100.00
70015;BME280;57358;51.094;6.760;2023-11-18T04:08:46;101877.84;;;3.73;100.00
70015;BME280;57358;51.094;6.760;2023-11-18T04:11:13;101902.91;;;3.84;100.00
70015;BME280;57358;51.094;6.760;2023-11-18T04:13:40;101815.78;;;3.27;100.00
70015;BME280;57358;51.094;6.760;2023-11-18T04:16:14;101902.91;;;3.80;100.00
70015;BME280;57358;51.094;6.760;2023-11-18T04:18:44;101907.22;;;3.85;100.00
70015;BME280;57358;51.094;6.760;2023-11-18T04:21:11;101842.50;;;3.48;100.00
70015;BME280;57358;51.094;6.760;2023-11-18T04:23:41;101852.00;;;3.52;100.00
70015;BME280;57358;51.094;6.760;2023-11-18T04:26:08;101677.75;;;2.48;100.00
70015;BME280;57358;51.094;6.760;2023-11-18T04:28:35;101781.25;;;3.11;100.00
70015;BME280;57358;51.094;6.760;2023-11-18T04:31:02;101915.94;;;3.67;100.00
70015;BME280;57358;51.094;6.760;2023-11-18T04:33:29;101818.38;;;3.26;100.00
70015;BME280;57358;51.094;6.760;2023-11-18T04:35:55;101814.88;;;3.28;100.00
70015;BME280;57358;51.094;6.760;2023-11-18T04:38:26;101799.31;;;3.33;100.00
70015;BME280;57358;51.094;6.760;2023-11-18T04:40:53;101811.38;;;3.38;100.00
70015;BME280;57358;51.094;6.760;2023-11-18T04:43:21;101789.78;;;3.35;100.00
70015;BME280;57358;51.094;6.760;2023-11-18T04:46:05;101852.78;;;3.66;100.00
70015;BME280;57358;51.094;6.760;2023-11-18T04:48:31;101699.25;;;2.78;100.00
70015;BME280;57358;51.094;6.760;2023-11-18T04:50:59;101744.88;;;3.20;100.00
70015;BME280;57358;51.094;6.760;2023-11-18T04:53:26;101673.41;;;2.63;100.00
70015;BME280;57358;51.094;6.760;2023-11-18T04:55:52;101720.72;;;3.06;100.00
70015;BME280;57358;51.094;6.760;2023-11-18T04:58:19;101819.91;;;3.60;100.00
70015;BME280;57358;51.094;6.760;2023-11-18T05:00:48;101747.50;;;3.19;100.00
70015;BME280;57358;51.094;6.760;2023-11-18T05:03:16;101826.81;;;3.69;100.00
70015;BME280;57358;51.094;6.760;2023-11-18T05:05:43;101784.56;;;3.36;100.00
70015;BME280;57358;51.094;6.760;2023-11-18T05:08:19;101777.69;;;3.37;100.00
70015;BME280;57358;51.094;6.760;2023-11-18T05:10:49;101805.28;;;3.53;100.00
70015;BME280;57358;51.094;6.760;2023-11-18T05:13:17;101777.56;;;3.54;100.00
70015;BME280;57358;51.094;6.760;2023-11-18T05:15:46;101750.03;;;3.33;100.00
70015;BME280;57358;51.094;6.760;2023-11-18T05:18:13;101809.50;;;3.67;100.00
70015;BME280;57358;51.094;6.760;2023-11-18T05:20:42;101689.63;;;3.08;100.00
70015;BME280;57358;51.094;6.760;2023-11-18T05:23:09;101751.69;;;3.40;100.00
70015;BME280;57358;51.094;6.760;2023-11-18T05:25:36;101800.81;;;3.75;100.00
70015;BME280;57358;51.094;6.760;2023-11-18T05:28:03;101761.97;;;3.60;100.00
70015;BME280;57358;51.094;6.760;2023-11-18T05:30:31;101793.84;;;3.82;100.00
70015;BME280;57358;51.094;6.760;2023-11-18T05:32:57;101730.03;;;3.47;100.00
70015;BME280;57358;51.094;6.760;2023-11-18T05:35:25;101780.94;;;3.73;100.00
70015;BME280;57358;51.094;6.760;2023-11-18T05:37:55;101684.31;;;3.25;100.00
70015;BME280;57358;51.094;6.760;2023-11-18T05:40:21;101779.91;;;3.94;100.00
70015;BME280;57358;51.094;6.760;2023-11-18T05:42:49;101734.25;;;3.64;100.00
70015;BME280;57358;51.094;6.760;2023-11-18T05:45:18;101781.56;;;4.04;100.00
70015;BME280;57358;51.094;6.760;2023-11-18T05:47:57;101739.41;;;3.73;100.00
70015;BME280;57358;51.094;6.760;2023-11-18T05:50:24;101660.06;;;3.30;100.00
70015;BME280;57358;51.094;6.760;2023-11-18T05:52:53;101672.97;;;3.43;100.00
70015;BME280;57358;51.094;6.760;2023-11-18T05:55:20;101734.25;;;3.64;100.00
70015;BME280;57358;51.094;6.760;2023-11-18T05:57:47;101762.69;;;3.84;100.00
70015;BME280;57358;51.094;6.760;2023-11-18T06:00:14;101781.63;;;3.98;100.00
70015;BME280;57358;51.094;6.760;2023-11-18T06:02:50;101699.72;;;3.52;100.00
70015;BME280;57358;51.094;6.760;2023-11-18T06:05:18;101788.50;;;4.00;100.00
70015;BME280;57358;51.094;6.760;2023-11-18T06:07:44;101791.97;;;4.06;100.00
70015;BME280;57358;51.094;6.760;2023-11-18T06:10:11;101785.91;;;4.04;100.00
70015;BME280;57358;51.094;6.760;2023-11-18T06:12:38;101691.09;;;3.49;100.00
70015;BME280;57358;51.094;6.760;2023-11-18T06:15:07;101704.88;;;3.60;100.00
70015;BME280;57358;51.094;6.760;2023-11-18T06:17:35;101703.97;;;3.63;100.00
70015;BME280;57358;51.094;6.760;2023-11-18T06:20:02;101718.53;;;3.80;100.00
70015;BME280;57358;51.094;6.760;2023-11-18T06:22:32;101734.94;;;3.89;100.00
70015;BME280;57358;51.094;6.760;2023-11-18T06:24:58;101684.09;;;3.62;100.00
70015;BME280;57358;51.094;6.760;2023-11-18T06:27:25;101685.84;;;3.59;100.00
70015;BME280;57358;51.094;6.760;2023-11-18T06:29:51;101774.50;;;4.23;100.00
70015;BME280;57358;51.094;6.760;2023-11-18T06:32:21;101625.53;;;3.24;100.00
70015;BME280;57358;51.094;6.760;2023-11-18T06:34:48;101519.59;;;2.70;100.00
70015;BME280;57358;51.094;6.760;2023-11-18T06:37:15;101768.41;;;4.23;100.00
70015;BME280;57358;51.094;6.760;2023-11-18T06:39:43;101699.56;;;3.77;100.00
70015;BME280;57358;51.094;6.760;2023-11-18T06:42:11;101717.66;;;3.85;100.00
70015;BME280;57358;51.094;6.760;2023-11-18T06:44:38;101765.81;;;4.24;100.00
70015;BME280;57358;51.094;6.760;2023-11-18T06:47:04;101707.25;;;3.86;100.00
70015;BME280;57358;51.094;6.760;2023-11-18T06:49:32;101775.31;;;4.27;100.00
70015;BME280;57358;51.094;6.760;2023-11-18T06:52:03;101722.00;;;3.83;100.00
70015;BME280;57358;51.094;6.760;2023-11-18T06:54:30;101788.34;;;4.24;100.00
70015;BME280;57358;51.094;6.760;2023-11-18T06:56:58;101753.00;;;4.06;100.00
70015;BME280;57358;51.094;6.760;2023-11-18T06:59:25;101705.63;;;3.76;100.00
70015;BME280;57358;51.094;6.760;2023-11-18T07:01:51;101728.84;;;3.94;100.00
70015;BME280;57358;51.094;6.760;2023-11-18T07:04:18;101793.50;;;4.30;100.00
70015;BME280;57358;51.094;6.760;2023-11-18T07:06:45;101647.00;;;3.46;100.00
70015;BME280;57358;51.094;6.760;2023-11-18T07:09:12;101690.13;;;3.65;100.00
70015;BME280;57358;51.094;6.760;2023-11-18T07:11:40;101819.41;;;4.39;100.00
70015;BME280;57358;51.094;6.760;2023-11-18T07:14:10;101820.28;;;4.36;100.00
70015;BME280;57358;51.094;6.760;2023-11-18T07:16:38;101829.75;;;4.45;100.00
70015;BME280;57358;51.094;6.760;2023-11-18T07:19:06;101724.63;;;3.78;100.00
70015;BME280;57358;51.094;6.760;2023-11-18T07:21:33;101741.06;;;3.83;100.00
70015;BME280;57358;51.094;6.760;2023-11-18T07:24:00;101834.97;;;4.45;100.00
70015;BME280;57358;51.094;6.760;2023-11-18T07:26:28;101676.31;;;3.63;100.00
70015;BME280;57358;51.094;6.760;2023-11-18T07:28:55;101818.34;;;4.63;100.00
70015;BME280;57358;51.094;6.760;2023-11-18T07:31:22;101751.03;;;4.31;100.00
70015;BME280;57358;51.094;6.760;2023-11-18T07:33:48;101745.03;;;4.26;100.00
70015;BME280;57358;51.094;6.760;2023-11-18T07:36:16;101785.50;;;4.50;100.00
70015;BME280;57358;51.094;6.760;2023-11-18T07:38:43;101738.88;;;4.33;100.00
70015;BME280;57358;51.094;6.760;2023-11-18T07:41:10;101743.16;;;4.38;100.00
70015;BME280;57358;51.094;6.760;2023-11-18T07:43:50;101780.97;;;4.72;100.00
70015;BME280;57358;51.094;6.760;2023-11-18T07:46:17;101717.19;;;4.37;100.00
70015;BME280;57358;51.094;6.760;2023-11-18T07:48:44;101802.53;;;4.82;100.00
70015;BME280;57358;51.094;6.760;2023-11-18T07:51:10;101722.25;;;4.51;100.00
70015;BME280;57358;51.094;6.760;2023-11-18T07:53:38;101723.28;;;4.34;100.00
70015;BME280;57358;51.094;6.760;2023-11-18T07:56:05;101704.94;;;4.50;100.00
70015;BME280;57358;51.094;6.760;2023-11-18T07:58:34;101748.78;;;4.80;100.00
70015;BME280;57358;51.094;6.760;2023-11-18T08:01:04;101557.69;;;3.71;100.00
70015;BME280;57358;51.094;6.760;2023-11-18T08:03:33;101737.44;;;4.88;100.00
70015;BME280;57358;51.094;6.760;2023-11-18T08:06:00;101728.91;;;4.76;100.00
70015;BME280;57358;51.094;6.760;2023-11-18T08:08:28;101681.53;;;4.51;100.00
70015;BME280;57358;51.094;6.760;2023-11-18T08:10:55;101701.34;;;4.63;100.00
70015;BME280;57358;51.094;6.760;2023-11-18T08:13:21;101693.41;;;4.72;100.00
70015;BME280;57358;51.094;6.760;2023-11-18T08:15:48;101557.53;;;3.85;100.00
70015;BME280;57358;51.094;6.760;2023-11-18T08:18:15;101762.22;;;5.19;100.00
70015;BME280;57358;51.094;6.760;2023-11-18T08:20:43;101700.97;;;4.92;100.00
70015;BME280;57358;51.094;6.760;2023-11-18T08:23:10;101757.78;;;5.25;100.00
70015;BME280;57358;51.094;6.760;2023-11-18T08:25:36;101750.75;;;5.33;100.00
70015;BME280;57358;51.094;6.760;2023-11-18T08:28:03;101751.66;;;5.30;100.00
70015;BME280;57358;51.094;6.760;2023-11-18T08:30:31;101678.59;;;4.79;100.00
70015;BME280;57358;51.094;6.760;2023-11-18T08:33:00;101721.38;;;5.23;100.00
70015;BME280;57358;51.094;6.760;2023-11-18T08:35:31;101697.28;;;5.09;100.00
70015;BME280;57358;51.094;6.760;2023-11-18T08:37:58;101633.63;;;4.71;100.00
70015;BME280;57358;51.094;6.760;2023-11-18T08:40:25;101590.56;;;4.48;100.00
70015;BME280;57358;51.094;6.760;2023-11-18T08:42:53;101757.50;;;5.49;100.00
70015;BME280;57358;51.094;6.760;2023-11-18T08:45:28;101719.63;;;5.25;100.00
70015;BME280;57358;51.094;6.760;2023-11-18T08:47:56;101727.09;;;5.51;100.00
70015;BME280;57358;51.094;6.760;2023-11-18T08:50:24;101704.91;;;5.23;100.00
70015;BME280;57358;51.094;6.760;2023-11-18T08:52:52;101627.31;;;4.89;100.00
70015;BME280;57358;51.094;6.760;2023-11-18T08:55:29;101735.81;;;5.47;100.00
70015;BME280;57358;51.094;6.760;2023-11-18T08:58:06;101727.13;;;5.45;100.00
70015;BME280;57358;51.094;6.760;2023-11-18T09:00:46;101749.34;;;5.71;100.00
70015;BME280;57358;51.094;6.760;2023-11-18T09:03:24;101739.97;;;5.59;100.00
70015;BME280;57358;51.094;6.760;2023-11-18T09:05:52;101739.13;;;5.57;100.00
70015;BME280;57358;51.094;6.760;2023-11-18T09:08:29;101518.97;;;4.27;100.00
70015;BME280;57358;51.094;6.760;2023-11-18T09:10:58;101639.84;;;5.24;100.00
70015;BME280;57358;51.094;6.760;2023-11-18T09:13:25;101701.69;;;5.64;100.00
70015;BME280;57358;51.094;6.760;2023-11-18T09:15:57;101662.28;;;5.31;100.00
70015;BME280;57358;51.094;6.760;2023-11-18T09:18:24;101685.19;;;5.65;100.00
70015;BME280;57358;51.094;6.760;2023-11-18T09:20:52;101489.94;;;4.58;100.00
70015;BME280;57358;51.094;6.760;2023-11-18T09:23:22;101455.69;;;4.31;100.00
70015;BME280;57358;51.094;6.760;2023-11-18T09:25:49;101661.66;;;5.71;100.00
70015;BME280;57358;51.094;6.760;2023-11-18T09:28:16;101665.88;;;5.77;100.00
70015;BME280;57358;51.094;6.760;2023-11-18T09:30:43;101531.88;;;4.95;100.00
70015;BME280;57358;51.094;6.760;2023-11-18T09:33:17;101651.09;;;5.79;100.00
70015;BME280;57358;51.094;6.760;2023-11-18T09:35:52;101589.25;;;5.39;100.00
70015;BME280;57358;51.094;6.760;2023-11-18T09:38:35;101663.03;;;5.92;100.00
70015;BME280;57358;51.094;6.760;2023-11-18T09:41:03;101544.28;;;5.31;100.00
70015;BME280;57358;51.094;6.760;2023-11-18T09:43:33;101667.13;;;6.07;100.00
70015;BME280;57358;51.094;6.760;2023-11-18T09:46:16;101653.97;;;6.15;100.00
70015;BME280;57358;51.094;6.760;2023-11-18T09:48:43;101660.84;;;6.19;100.00
70015;BME280;57358;51.094;6.760;2023-11-18T09:51:15;101594.38;;;5.96;100.00
70015;BME280;57358;51.094;6.760;2023-11-18T09:53:45;101634.50;;;6.34;100.00
70015;BME280;57358;51.094;6.760;2023-11-18T09:56:19;101529.50;;;5.81;100.00
70015;BME280;57358;51.094;6.760;2023-11-18T09:59:07;101523.19;;;5.96;100.00
70015;BME280;57358;51.094;6.760;2023-11-18T10:01:43;101604.63;;;6.49;100.00
70015;BME280;57358;51.094;6.760;2023-11-18T10:04:10;101576.28;;;6.34;100.00
70015;BME280;57358;51.094;6.760;2023-11-18T10:06:38;101591.53;;;6.54;100.00
70015;BME280;57358;51.094;6.760;2023-11-18T10:09:08;101356.28;;;5.18;100.00
70015;BME280;57358;51.094;6.760;2023-11-18T10:11:51;101394.69;;;5.52;100.00
70015;BME280;57358;51.094;6.760;2023-11-18T10:14:21;101455.28;;;6.04;100.00
70015;BME280;57358;51.094;6.760;2023-11-18T10:16:50;101497.13;;;6.38;100.00
70015;BME280;57358;51.094;6.760;2023-11-18T10:19:20;101512.34;;;6.56;100.00
70015;BME280;57358;51.094;6.760;2023-11-18T10:21:50;101479.75;;;6.37;100.00
70015;BME280;57358;51.094;6.760;2023-11-18T10:24:16;101434.22;;;6.14;100.00
70015;BME280;57358;51.094;6.760;2023-11-18T10:26:54;101445.06;;;6.33;100.00
70015;BME280;57358;51.094;6.760;2023-11-18T10:29:25;101436.09;;;6.45;100.00
70015;BME280;57358;51.094;6.760;2023-11-18T10:32:07;101472.97;;;6.67;100.00
70015;BME280;57358;51.094;6.760;2023-11-18T10:34:35;101445.44;;;6.55;100.00
70015;BME280;57358;51.094;6.760;2023-11-18T10:37:02;101410.13;;;6.42;100.00
70015;BME280;57358;51.094;6.760;2023-11-18T10:39:29;101343.84;;;6.15;100.00
70015;BME280;57358;51.094;6.760;2023-11-18T10:42:02;101262.56;;;5.62;100.00
70015;BME280;57358;51.094;6.760;2023-11-18T10:44:29;101421.09;;;6.56;100.00
70015;BME280;57358;51.094;6.760;2023-11-18T10:46:56;101302.69;;;5.90;100.00
70015;BME280;57358;51.094;6.760;2023-11-18T10:49:27;101413.19;;;6.59;100.00
70015;BME280;57358;51.094;6.760;2023-11-18T10:51:55;101423.03;;;6.84;100.00
70015;BME280;57358;51.094;6.760;2023-11-18T10:54:23;101372.41;;;6.55;100.00
70015;BME280;57358;51.094;6.760;2023-11-18T10:56:52;101320.09;;;6.27;100.00
70015;BME280;57358;51.094;6.760;2023-11-18T10:59:23;101382.78;;;6.58;100.00
70015;BME280;57358;51.094;6.760;2023-11-18T11:01:50;101317.63;;;6.21;100.00
70015;BME280;57358;51.094;6.760;2023-11-18T11:04:17;101441.00;;;6.95;100.00
70015;BME280;57358;51.094;6.760;2023-11-18T11:06:48;101386.69;;;6.76;100.00
70015;BME280;57358;51.094;6.760;2023-11-18T11:09:24;101405.72;;;7.14;100.00
70015;BME280;57358;51.094;6.760;2023-11-18T11:11:57;101350.81;;;6.85;100.00
70015;BME280;57358;51.094;6.760;2023-11-18T11:14:33;101317.25;;;6.71;100.00
70015;BME280;57358;51.094;6.760;2023-11-18T11:17:06;101373.63;;;7.11;100.00
70015;BME280;57358;51.094;6.760;2023-11-18T11:20:04;101354.69;;;7.03;100.00
70015;BME280;57358;51.094;6.760;2023-11-18T11:25:35;101398.59;;;7.19;100.00
70015;BME280;57358;51.094;6.760;2023-11-18T11:28:11;101392.69;;;7.13;100.00
70015;BME280;57358;51.094;6.760;2023-11-18T11:30:50;101363.03;;;6.83;100.00
70015;BME280;57358;51.094;6.760;2023-11-18T11:33:57;101399.72;;;7.11;100.00
70015;BME280;57358;51.094;6.760;2023-11-18T11:36:28;101406.66;;;7.12;100.00
70015;BME280;57358;51.094;6.760;2023-11-18T11:38:58;101408.19;;;7.19;100.00
70015;BME280;57358;51.094;6.760;2023-11-18T11:41:25;101400.47;;;7.16;100.00
70015;BME280;57358;51.094;6.760;2023-11-18T11:43:55;101407.38;;;7.17;100.00
70015;BME280;57358;51.094;6.760;2023-11-18T11:46:26;101403.81;;;7.19;100.00
70015;BME280;57358;51.094;6.760;2023-11-18T11:49:00;101422.63;;;7.32;100.00
70015;BME280;57358;51.094;6.760;2023-11-18T11:51:31;101412.88;;;7.39;100.00
70015;BME280;57358;51.094;6.760;2023-11-18T11:54:11;101416.28;;;7.43;100.00
70015;BME280;57358;51.094;6.760;2023-11-18T11:56:46;101405.81;;;7.43;100.00
70015;BME280;57358;51.094;6.760;2023-11-18T11:59:35;101221.72;;;6.35;100.00
70015;BME280;57358;51.094;6.760;2023-11-18T12:02:10;101334.72;;;7.02;100.00
70015;BME280;57358;51.094;6.760;2023-11-18T12:04:37;101412.50;;;7.53;100.00
70015;BME280;57358;51.094;6.760;2023-11-18T12:07:08;101313.97;;;6.97;100.00
70015;BME280;57358;51.094;6.760;2023-11-18T12:09:46;101337.75;;;7.17;100.00
70015;BME280;57358;51.094;6.760;2023-11-18T12:12:17;101336.91;;;7.17;100.00
70015;BME280;57358;51.094;6.760;2023-11-18T12:14:52;101382.16;;;7.49;100.00
70015;BME280;57358;51.094;6.760;2023-11-18T12:17:23;101293.78;;;7.04;100.00
70015;BME280;57358;51.094;6.760;2023-11-18T12:19:50;101282.66;;;6.97;100.00
70015;BME280;57358;51.094;6.760;2023-11-18T12:22:23;101307.03;;;7.27;100.00
70015;BME280;57358;51.094;6.760;2023-11-18T12:35:25;101296.94;;;7.45;100.00
70015;BME280;57358;51.094;6.760;2023-11-18T12:40:56;101081.22;;;6.26;100.00
70015;BME280;57358;51.094;6.760;2023-11-18T12:43:47;101058.94;;;6.14;100.00
70015;BME280;57358;51.094;6.760;2023-11-18T12:46:41;101276.72;;;7.51;100.00
70015;BME280;57358;51.094;6.760;2023-11-18T12:49:23;101272.50;;;7.47;100.00
70015;BME280;57358;51.094;6.760;2023-11-18T12:51:52;101254.38;;;7.43;100.00
70015;BME280;57358;51.094;6.760;2023-11-18T12:54:19;101243.97;;;7.41;100.00
70015;BME280;57358;51.094;6.760;2023-11-18T12:56:51;101179.59;;;7.12;100.00
70015;BME280;57358;51.094;6.760;2023-11-18T12:59:20;101223.19;;;7.38;100.00
70015;BME280;57358;51.094;6.760;2023-11-18T13:01:50;101185.44;;;7.20;100.00
70015;BME280;57358;51.094;6.760;2023-11-18T13:04:23;101229.94;;;7.44;100.00
70015;BME280;57358;51.094;6.760;2023-11-18T13:06:51;101199.47;;;7.16;100.00
70015;BME280;57358;51.094;6.760;2023-11-18T13:09:17;101215.66;;;7.27;100.00
70015;BME280;57358;51.094;6.760;2023-11-18T13:11:55;101211.19;;;7.31;100.00
70015;BME280;57358;51.094;6.760;2023-11-18T13:14:31;100988.00;;;6.05;100.00
70015;BME280;57358;51.094;6.760;2023-11-18T13:17:03;101115.69;;;6.95;100.00
70015;BME280;57358;51.094;6.760;2023-11-18T13:19:32;101148.81;;;7.22;100.00